createdAt,value
2022-12-01T00:00:16.170Z,100.00
2022-12-01T00:01:19.769Z,100.00
2022-12-01T00:02:22.282Z,100.00
2022-12-01T00:03:26.073Z,100.00
2022-12-01T00:04:28.843Z,100.00
2022-12-01T00:05:32.433Z,100.00
2022-12-01T00:06:35.157Z,100.00
2022-12-01T00:07:39.006Z,100.00
2022-12-01T00:09:03.252Z,100.00
2022-12-01T00:10:25.499Z,100.00
2022-12-01T00:11:27.948Z,100.00
2022-12-01T00:12:32.805Z,100.00
2022-12-01T00:13:35.517Z,100.00
2022-12-01T00:14:38.877Z,100.00
2022-12-01T00:15:41.339Z,100.00
2022-12-01T00:16:45.005Z,100.00
2022-12-01T00:17:47.950Z,100.00
2022-12-01T00:18:51.748Z,100.00
2022-12-01T00:19:55.101Z,100.00
2022-12-01T00:20:57.599Z,100.00
2022-12-01T00:22:01.206Z,100.00
2022-12-01T00:23:03.678Z,100.00
2022-12-01T00:24:09.016Z,100.00
2022-12-01T00:25:13.349Z,100.00
2022-12-01T00:26:16.679Z,100.00
2022-12-01T00:27:20.054Z,100.00
2022-12-01T00:28:24.110Z,100.00
2022-12-01T00:29:28.952Z,100.00
2022-12-01T00:30:31.306Z,100.00
2022-12-01T00:31:34.586Z,100.00
2022-12-01T00:32:36.981Z,100.00
2022-12-01T00:33:40.747Z,100.00
2022-12-01T00:34:42.879Z,100.00
2022-12-01T00:35:46.003Z,100.00
2022-12-01T00:36:48.181Z,100.00
2022-12-01T00:37:51.366Z,100.00
2022-12-01T00:38:54.805Z,100.00
2022-12-01T00:39:58.588Z,100.00
2022-12-01T00:41:00.812Z,100.00
2022-12-01T00:42:05.458Z,100.00
2022-12-01T00:43:09.644Z,100.00
2022-12-01T00:44:14.338Z,100.00
2022-12-01T00:45:16.349Z,100.00
2022-12-01T00:46:20.075Z,100.00
2022-12-01T00:47:22.405Z,100.00
2022-12-01T00:48:25.925Z,100.00
2022-12-01T00:49:27.972Z,100.00
2022-12-01T00:50:31.061Z,100.00
2022-12-01T00:51:33.080Z,100.00
2022-12-01T00:52:36.159Z,100.00
2022-12-01T00:53:38.239Z,100.00
2022-12-01T00:54:41.460Z,100.00
2022-12-01T00:55:43.468Z,100.00
2022-12-01T00:56:46.549Z,100.00
2022-12-01T00:57:48.614Z,100.00
2022-12-01T00:58:51.659Z,100.00
2022-12-01T00:59:55.065Z,100.00
2022-12-01T01:00:59.573Z,100.00
2022-12-01T01:02:01.939Z,100.00
2022-12-01T01:03:05.259Z,100.00
2022-12-01T01:04:07.486Z,100.00
2022-12-01T01:05:11.007Z,100.00
2022-12-01T01:06:13.992Z,100.00
2022-12-01T01:07:17.169Z,100.00
2022-12-01T01:08:19.384Z,100.00
2022-12-01T01:09:22.448Z,100.00
2022-12-01T01:10:24.452Z,100.00
2022-12-01T01:11:28.484Z,100.00
2022-12-01T01:12:30.581Z,100.00
2022-12-01T01:13:34.305Z,100.00
2022-12-01T01:14:37.357Z,100.00
2022-12-01T01:15:41.644Z,100.00
2022-12-01T01:16:45.412Z,100.00
2022-12-01T01:17:47.456Z,100.00
2022-12-01T01:18:50.843Z,100.00
2022-12-01T01:19:52.944Z,100.00
2022-12-01T01:20:57.594Z,100.00
2022-12-01T01:21:59.570Z,100.00
2022-12-01T01:23:02.625Z,100.00
2022-12-01T01:24:05.843Z,100.00
2022-12-01T01:25:09.660Z,100.00
2022-12-01T01:26:14.407Z,100.00
2022-12-01T01:27:17.582Z,100.00
2022-12-01T01:28:19.918Z,100.00
2022-12-01T01:29:23.066Z,100.00
2022-12-01T01:30:25.209Z,100.00
2022-12-01T01:31:31.825Z,100.00
2022-12-01T01:32:34.043Z,100.00
2022-12-01T01:33:37.766Z,100.00
2022-12-01T01:34:39.796Z,100.00
2022-12-01T01:35:42.825Z,100.00
2022-12-01T01:36:44.977Z,100.00
2022-12-01T01:37:50.016Z,100.00
2022-12-01T01:38:53.359Z,100.00
2022-12-01T01:39:56.386Z,100.00
2022-12-01T01:40:58.413Z,100.00
2022-12-01T01:42:01.550Z,100.00
2022-12-01T01:43:13.279Z,100.00
2022-12-01T01:44:55.831Z,100.00
2022-12-01T01:45:57.935Z,100.00
2022-12-01T01:47:03.727Z,100.00
2022-12-01T01:48:05.959Z,100.00
2022-12-01T01:49:12.465Z,100.00
2022-12-01T01:50:18.539Z,100.00
2022-12-01T01:51:27.923Z,100.00
2022-12-01T01:52:30.376Z,100.00
2022-12-01T01:53:33.629Z,100.00
2022-12-01T01:54:39.644Z,100.00
2022-12-01T01:55:42.701Z,100.00
2022-12-01T01:56:46.444Z,100.00
2022-12-01T01:57:49.597Z,100.00
2022-12-01T01:58:53.314Z,100.00
2022-12-01T02:00:00.255Z,100.00
2022-12-01T02:01:02.842Z,100.00
2022-12-01T02:02:09.162Z,100.00
2022-12-01T02:03:15.594Z,100.00
2022-12-01T02:04:20.416Z,100.00
2022-12-01T02:05:24.924Z,100.00
2022-12-01T02:06:28.209Z,100.00
2022-12-01T02:07:30.393Z,100.00
2022-12-01T02:08:36.559Z,100.00
2022-12-01T02:09:38.604Z,100.00
2022-12-01T02:10:58.136Z,100.00
2022-12-01T02:12:12.471Z,100.00
2022-12-01T02:13:25.210Z,100.00
2022-12-01T02:14:43.918Z,100.00
2022-12-01T02:15:56.844Z,100.00
2022-12-01T02:17:05.039Z,100.00
2022-12-01T02:18:22.462Z,100.00
2022-12-01T02:19:55.945Z,100.00
2022-12-01T02:21:26.676Z,100.00
2022-12-01T02:22:39.931Z,100.00
2022-12-01T02:24:09.240Z,100.00
2022-12-01T02:25:22.251Z,100.00
2022-12-01T02:26:39.501Z,100.00
2022-12-01T02:28:03.885Z,100.00
2022-12-01T02:29:50.644Z,100.00
2022-12-01T02:30:58.162Z,100.00
2022-12-01T02:32:12.647Z,100.00
2022-12-01T02:33:19.434Z,100.00
2022-12-01T02:34:28.796Z,100.00
2022-12-01T02:35:40.885Z,100.00
2022-12-01T02:36:49.329Z,100.00
2022-12-01T02:38:02.691Z,100.00
2022-12-01T02:39:10.577Z,100.00
2022-12-01T02:40:18.970Z,100.00
2022-12-01T02:41:29.559Z,100.00
2022-12-01T02:42:53.617Z,100.00
2022-12-01T02:44:04.469Z,100.00
2022-12-01T02:45:12.028Z,100.00
2022-12-01T02:46:23.641Z,100.00
2022-12-01T02:47:25.948Z,100.00
2022-12-01T02:48:32.522Z,100.00
2022-12-01T02:49:39.372Z,100.00
2022-12-01T02:50:44.621Z,100.00
2022-12-01T02:51:52.069Z,100.00
2022-12-01T02:52:54.548Z,100.00
2022-12-01T02:53:59.804Z,100.00
2022-12-01T02:55:01.882Z,100.00
2022-12-01T02:56:08.829Z,100.00
2022-12-01T02:57:12.372Z,100.00
2022-12-01T02:58:16.100Z,100.00
2022-12-01T02:59:18.263Z,100.00
2022-12-01T03:00:21.550Z,100.00
2022-12-01T03:01:41.453Z,100.00
2022-12-01T03:02:55.030Z,100.00
2022-12-01T03:04:11.911Z,100.00
2022-12-01T03:05:22.920Z,100.00
2022-12-01T03:06:37.400Z,100.00
2022-12-01T03:07:57.576Z,100.00
2022-12-01T03:09:10.317Z,100.00
2022-12-01T03:10:21.662Z,100.00
2022-12-01T03:11:34.802Z,100.00
2022-12-01T03:12:45.570Z,100.00
2022-12-01T03:13:54.056Z,100.00
2022-12-01T03:15:05.617Z,100.00
2022-12-01T03:16:12.643Z,100.00
2022-12-01T03:17:25.442Z,100.00
2022-12-01T03:18:36.195Z,100.00
2022-12-01T03:19:42.853Z,100.00
2022-12-01T03:20:53.203Z,100.00
2022-12-01T03:22:01.360Z,100.00
2022-12-01T03:23:09.502Z,100.00
2022-12-01T03:24:15.662Z,100.00
2022-12-01T03:25:20.070Z,100.00
2022-12-01T03:26:25.886Z,100.00
2022-12-01T03:27:31.804Z,100.00
2022-12-01T03:28:39.361Z,100.00
2022-12-01T03:29:45.253Z,100.00
2022-12-01T03:30:52.170Z,100.00
2022-12-01T03:31:59.117Z,100.00
2022-12-01T03:33:09.958Z,100.00
2022-12-01T03:34:16.755Z,100.00
2022-12-01T03:35:27.605Z,100.00
2022-12-01T03:36:37.070Z,100.00
2022-12-01T03:37:44.435Z,100.00
2022-12-01T03:38:52.295Z,100.00
2022-12-01T03:40:00.484Z,100.00
2022-12-01T03:41:09.527Z,100.00
2022-12-01T03:42:17.790Z,100.00
2022-12-01T03:43:25.072Z,100.00
2022-12-01T03:44:36.856Z,100.00
2022-12-01T03:45:47.296Z,100.00
2022-12-01T03:46:56.317Z,100.00
2022-12-01T03:47:58.813Z,100.00
2022-12-01T03:49:05.665Z,100.00
2022-12-01T03:50:13.355Z,100.00
2022-12-01T03:51:22.488Z,100.00
2022-12-01T03:52:33.936Z,100.00
2022-12-01T03:53:48.562Z,100.00
2022-12-01T03:55:01.825Z,100.00
2022-12-01T03:56:08.166Z,100.00
2022-12-01T03:57:14.476Z,100.00
2022-12-01T03:58:21.625Z,100.00
2022-12-01T03:59:25.807Z,100.00
2022-12-01T04:00:29.823Z,100.00
2022-12-01T04:01:33.453Z,100.00
2022-12-01T04:02:38.074Z,100.00
2022-12-01T04:03:40.467Z,100.00
2022-12-01T04:04:45.078Z,100.00
2022-12-01T04:05:47.206Z,100.00
2022-12-01T04:06:51.461Z,100.00
2022-12-01T04:07:54.011Z,100.00
2022-12-01T04:08:57.704Z,100.00
2022-12-01T04:09:59.857Z,100.00
2022-12-01T04:11:26.050Z,100.00
2022-12-01T04:12:30.606Z,100.00
2022-12-01T04:13:33.103Z,100.00
2022-12-01T04:14:35.166Z,100.00
2022-12-01T04:15:38.447Z,100.00
2022-12-01T04:16:43.879Z,100.00
2022-12-01T04:17:49.323Z,100.00
2022-12-01T04:18:54.153Z,100.00
2022-12-01T04:19:59.110Z,100.00
2022-12-01T04:21:01.250Z,100.00
2022-12-01T04:22:04.870Z,100.00
2022-12-01T04:23:06.957Z,100.00
2022-12-01T04:24:10.403Z,100.00
2022-12-01T04:25:12.592Z,100.00
2022-12-01T04:26:16.084Z,100.00
2022-12-01T04:27:19.575Z,100.00
2022-12-01T04:28:21.663Z,100.00
2022-12-01T04:29:25.093Z,100.00
2022-12-01T04:30:27.161Z,100.00
2022-12-01T04:31:30.497Z,100.00
2022-12-01T04:32:37.185Z,100.00
2022-12-01T04:33:40.303Z,100.00
2022-12-01T04:34:42.663Z,100.00
2022-12-01T04:35:47.193Z,100.00
2022-12-01T04:36:49.299Z,100.00
2022-12-01T04:37:52.490Z,100.00
2022-12-01T04:38:54.588Z,100.00
2022-12-01T04:39:57.717Z,100.00
2022-12-01T04:40:59.808Z,100.00
2022-12-01T04:42:02.991Z,100.00
2022-12-01T04:43:05.078Z,100.00
2022-12-01T04:44:08.179Z,100.00
2022-12-01T04:45:10.981Z,100.00
2022-12-01T04:46:14.191Z,100.00
2022-12-01T04:47:16.291Z,100.00
2022-12-01T04:48:19.353Z,100.00
2022-12-01T04:49:22.339Z,100.00
2022-12-01T04:50:25.461Z,100.00
2022-12-01T04:51:28.915Z,100.00
2022-12-01T04:52:35.237Z,100.00
2022-12-01T04:53:38.020Z,100.00
2022-12-01T04:54:41.269Z,100.00
2022-12-01T04:55:43.339Z,100.00
2022-12-01T04:56:46.748Z,100.00
2022-12-01T04:57:48.984Z,100.00
2022-12-01T04:58:52.132Z,100.00
2022-12-01T04:59:54.223Z,100.00
2022-12-01T05:01:02.993Z,100.00
2022-12-01T05:02:05.279Z,100.00
2022-12-01T05:03:13.526Z,100.00
2022-12-01T05:04:17.045Z,100.00
2022-12-01T05:05:20.247Z,100.00
2022-12-01T05:06:24.594Z,100.00
2022-12-01T05:07:29.109Z,100.00
2022-12-01T05:08:31.378Z,100.00
2022-12-01T05:09:34.578Z,100.00
2022-12-01T05:10:36.833Z,100.00
2022-12-01T05:11:39.964Z,100.00
2022-12-01T05:12:42.077Z,100.00
2022-12-01T05:13:47.336Z,100.00
2022-12-01T05:14:49.583Z,100.00
2022-12-01T05:15:52.950Z,100.00
2022-12-01T05:16:56.040Z,100.00
2022-12-01T05:17:59.377Z,100.00
2022-12-01T05:19:21.032Z,100.00
2022-12-01T05:20:44.424Z,100.00
2022-12-01T05:21:49.374Z,100.00
2022-12-01T05:23:10.771Z,100.00
2022-12-01T05:24:16.764Z,100.00
2022-12-01T05:25:19.081Z,100.00
2022-12-01T05:26:22.194Z,100.00
2022-12-01T05:27:24.307Z,100.00
2022-12-01T05:28:27.642Z,100.00
2022-12-01T05:29:33.006Z,100.00
2022-12-01T05:30:35.110Z,100.00
2022-12-01T05:31:39.747Z,100.00
2022-12-01T05:32:41.997Z,100.00
2022-12-01T05:33:45.092Z,100.00
2022-12-01T05:34:47.195Z,100.00
2022-12-01T05:35:51.058Z,100.00
2022-12-01T05:36:54.244Z,100.00
2022-12-01T05:37:57.731Z,100.00
2022-12-01T05:39:00.875Z,100.00
2022-12-01T05:40:03.065Z,100.00
2022-12-01T05:41:06.531Z,100.00
2022-12-01T05:42:08.624Z,100.00
2022-12-01T05:43:11.726Z,100.00
2022-12-01T05:44:14.860Z,100.00
2022-12-01T05:45:17.245Z,100.00
2022-12-01T05:46:20.641Z,100.00
2022-12-01T05:47:22.960Z,100.00
2022-12-01T05:48:26.496Z,100.00
2022-12-01T05:49:28.635Z,100.00
2022-12-01T05:50:32.154Z,100.00
2022-12-01T05:51:34.247Z,100.00
2022-12-01T05:52:37.919Z,100.00
2022-12-01T05:53:41.770Z,100.00
2022-12-01T05:54:44.859Z,100.00
2022-12-01T05:55:51.303Z,100.00
2022-12-01T05:56:54.395Z,100.00
2022-12-01T05:57:56.527Z,100.00
2022-12-01T05:58:59.669Z,100.00
2022-12-01T06:00:01.872Z,100.00
2022-12-01T06:01:14.556Z,100.00
2022-12-01T06:02:16.715Z,100.00
2022-12-01T06:03:19.921Z,100.00
2022-12-01T06:04:22.419Z,100.00
2022-12-01T06:05:25.604Z,100.00
2022-12-01T06:06:28.716Z,100.00
2022-12-01T06:07:32.179Z,100.00
2022-12-01T06:08:35.327Z,100.00
2022-12-01T06:09:38.847Z,100.00
2022-12-01T06:10:42.095Z,100.00
2022-12-01T06:11:44.252Z,100.00
2022-12-01T06:12:47.384Z,100.00
2022-12-01T06:13:50.512Z,100.00
2022-12-01T06:14:52.614Z,100.00
2022-12-01T06:16:00.531Z,100.00
2022-12-01T06:17:02.685Z,100.00
2022-12-01T06:18:05.907Z,100.00
2022-12-01T06:19:08.066Z,100.00
2022-12-01T06:20:12.819Z,100.00
2022-12-01T06:21:14.888Z,100.00
2022-12-01T06:22:18.039Z,100.00
2022-12-01T06:23:20.164Z,100.00
2022-12-01T06:24:23.286Z,100.00
2022-12-01T06:25:26.874Z,100.00
2022-12-01T06:26:30.160Z,100.00
2022-12-01T06:27:32.376Z,100.00
2022-12-01T06:28:35.846Z,100.00
2022-12-01T06:29:42.101Z,100.00
2022-12-01T06:30:45.726Z,100.00
2022-12-01T06:31:47.933Z,100.00
2022-12-01T06:32:51.168Z,100.00
2022-12-01T06:33:54.320Z,100.00
2022-12-01T06:34:56.435Z,100.00
2022-12-01T06:36:00.428Z,100.00
2022-12-01T06:37:02.611Z,100.00
2022-12-01T06:38:06.206Z,100.00
2022-12-01T06:39:10.113Z,100.00
2022-12-01T06:40:13.795Z,100.00
2022-12-01T06:41:18.364Z,100.00
2022-12-01T06:42:20.580Z,100.00
2022-12-01T06:43:23.668Z,100.00
2022-12-01T06:44:25.851Z,100.00
2022-12-01T06:45:29.460Z,100.00
2022-12-01T06:46:31.735Z,100.00
2022-12-01T06:47:34.915Z,100.00
2022-12-01T06:48:38.040Z,100.00
2022-12-01T06:49:40.129Z,100.00
2022-12-01T06:50:43.344Z,100.00
2022-12-01T06:51:46.302Z,100.00
2022-12-01T06:52:49.626Z,100.00
2022-12-01T06:53:54.922Z,100.00
2022-12-01T06:54:58.706Z,100.00
2022-12-01T06:56:01.325Z,100.00
2022-12-01T06:57:06.434Z,100.00
2022-12-01T06:58:08.852Z,100.00
2022-12-01T06:59:12.259Z,100.00
2022-12-01T07:00:15.574Z,100.00
2022-12-01T07:01:19.958Z,100.00
2022-12-01T07:02:23.266Z,100.00
2022-12-01T07:03:25.332Z,100.00
2022-12-01T07:04:28.496Z,100.00
2022-12-01T07:05:30.627Z,100.00
2022-12-01T07:06:34.100Z,100.00
2022-12-01T07:07:37.412Z,100.00
2022-12-01T07:08:40.565Z,100.00
2022-12-01T07:09:42.758Z,100.00
2022-12-01T07:10:45.884Z,100.00
2022-12-01T07:11:48.036Z,100.00
2022-12-01T07:12:52.510Z,100.00
2022-12-01T07:13:55.940Z,100.00
2022-12-01T07:14:59.143Z,100.00
2022-12-01T07:16:01.911Z,100.00
2022-12-01T07:17:05.325Z,100.00
2022-12-01T07:18:07.501Z,100.00
2022-12-01T07:19:10.785Z,100.00
2022-12-01T07:20:13.147Z,100.00
2022-12-01T07:21:16.936Z,100.00
2022-12-01T07:22:20.099Z,100.00
2022-12-01T07:23:22.214Z,100.00
2022-12-01T07:24:25.318Z,100.00
2022-12-01T07:25:27.423Z,100.00
2022-12-01T07:26:30.616Z,100.00
2022-12-01T07:27:32.713Z,100.00
2022-12-01T07:28:37.262Z,100.00
2022-12-01T07:29:39.351Z,100.00
2022-12-01T07:30:42.563Z,100.00
2022-12-01T07:31:45.832Z,100.00
2022-12-01T07:32:49.239Z,100.00
2022-12-01T07:33:52.593Z,100.00
2022-12-01T07:34:55.746Z,100.00
2022-12-01T07:35:57.983Z,100.00
2022-12-01T07:37:01.065Z,100.00
2022-12-01T07:38:04.237Z,100.00
2022-12-01T07:39:07.568Z,100.00
2022-12-01T07:40:12.115Z,100.00
2022-12-01T07:41:19.092Z,100.00
2022-12-01T07:42:22.309Z,100.00
2022-12-01T07:43:24.473Z,100.00
2022-12-01T07:44:28.960Z,100.00
2022-12-01T07:45:31.015Z,100.00
2022-12-01T07:46:34.257Z,100.00
2022-12-01T07:47:36.479Z,100.00
2022-12-01T07:48:40.713Z,100.00
2022-12-01T07:49:42.783Z,100.00
2022-12-01T07:50:45.876Z,100.00
2022-12-01T07:51:49.068Z,100.00
2022-12-01T07:52:51.637Z,100.00
2022-12-01T07:53:56.225Z,100.00
2022-12-01T07:54:59.387Z,100.00
2022-12-01T07:56:07.070Z,100.00
2022-12-01T07:57:14.309Z,100.00
2022-12-01T07:58:17.517Z,100.00
2022-12-01T07:59:20.609Z,100.00
2022-12-01T08:00:25.396Z,100.00
2022-12-01T08:01:27.724Z,100.00
2022-12-01T08:02:30.954Z,100.00
2022-12-01T08:03:34.083Z,100.00
2022-12-01T08:04:37.229Z,100.00
2022-12-01T08:05:39.366Z,100.00
2022-12-01T08:06:42.580Z,100.00
2022-12-01T08:07:44.721Z,100.00
2022-12-01T08:08:48.740Z,100.00
2022-12-01T08:09:52.091Z,100.00
2022-12-01T08:10:54.442Z,100.00
2022-12-01T08:11:57.551Z,100.00
2022-12-01T08:13:00.775Z,100.00
2022-12-01T08:14:03.932Z,100.00
2022-12-01T08:15:07.109Z,100.00
2022-12-01T08:16:14.819Z,100.00
2022-12-01T08:17:18.026Z,100.00
2022-12-01T08:18:20.215Z,100.00
2022-12-01T08:19:23.437Z,100.00
2022-12-01T08:20:26.659Z,100.00
2022-12-01T08:21:30.014Z,100.00
2022-12-01T08:22:32.528Z,100.00
2022-12-01T08:23:36.006Z,100.00
2022-12-01T08:24:38.048Z,100.00
2022-12-01T08:25:41.125Z,100.00
2022-12-01T08:26:43.252Z,100.00
2022-12-01T08:27:46.932Z,100.00
2022-12-01T08:28:49.109Z,100.00
2022-12-01T08:29:52.165Z,100.00
2022-12-01T08:30:55.722Z,100.00
2022-12-01T08:32:00.588Z,100.00
2022-12-01T08:33:02.713Z,100.00
2022-12-01T08:34:07.016Z,100.00
2022-12-01T08:35:09.805Z,100.00
2022-12-01T08:36:12.881Z,100.00
2022-12-01T08:37:16.524Z,100.00
2022-12-01T08:38:19.503Z,100.00
2022-12-01T08:39:22.587Z,100.00
2022-12-01T08:40:24.647Z,100.00
2022-12-01T08:41:28.508Z,100.00
2022-12-01T08:42:31.034Z,100.00
2022-12-01T08:43:56.700Z,100.00
2022-12-01T08:44:57.188Z,100.00
2022-12-01T08:46:00.295Z,100.00
2022-12-01T08:47:05.175Z,100.00
2022-12-01T08:48:08.325Z,100.00
2022-12-01T08:49:13.832Z,100.00
2022-12-01T08:50:17.395Z,100.00
2022-12-01T08:51:20.370Z,100.00
2022-12-01T08:52:23.714Z,100.00
2022-12-01T08:53:28.230Z,100.00
2022-12-01T08:54:33.258Z,100.00
2022-12-01T08:55:35.409Z,100.00
2022-12-01T08:56:41.402Z,100.00
2022-12-01T08:57:43.540Z,100.00
2022-12-01T08:58:46.913Z,100.00
2022-12-01T08:59:50.421Z,100.00
2022-12-01T09:00:53.820Z,100.00
2022-12-01T09:01:57.491Z,100.00
2022-12-01T09:03:02.535Z,100.00
2022-12-01T09:04:09.350Z,100.00
2022-12-01T09:05:12.435Z,100.00
2022-12-01T09:06:20.119Z,100.00
2022-12-01T09:07:26.559Z,100.00
2022-12-01T09:08:32.240Z,100.00
2022-12-01T09:09:36.466Z,100.00
2022-12-01T09:10:38.600Z,100.00
2022-12-01T09:11:43.661Z,100.00
2022-12-01T09:12:46.839Z,100.00
2022-12-01T09:13:54.708Z,100.00
2022-12-01T09:14:58.052Z,100.00
2022-12-01T09:16:02.103Z,100.00
2022-12-01T09:17:05.249Z,100.00
2022-12-01T09:18:08.639Z,100.00
2022-12-01T09:19:22.223Z,100.00
2022-12-01T09:20:28.273Z,100.00
2022-12-01T09:21:32.880Z,100.00
2022-12-01T09:22:34.933Z,100.00
2022-12-01T09:23:39.553Z,100.00
2022-12-01T09:24:42.645Z,100.00
2022-12-01T09:25:44.752Z,100.00
2022-12-01T09:26:47.823Z,100.00
2022-12-01T09:27:50.881Z,100.00
2022-12-01T09:28:55.093Z,100.00
2022-12-01T09:29:58.214Z,100.00
2022-12-01T09:31:05.439Z,100.00
2022-12-01T09:32:08.578Z,100.00
2022-12-01T09:33:12.831Z,100.00
2022-12-01T09:34:18.548Z,100.00
2022-12-01T09:35:23.419Z,100.00
2022-12-01T09:36:27.430Z,100.00
2022-12-01T09:37:30.480Z,100.00
2022-12-01T09:38:34.852Z,100.00
2022-12-01T09:39:37.873Z,100.00
2022-12-01T09:40:42.642Z,100.00
2022-12-01T09:41:48.326Z,100.00
2022-12-01T09:42:50.674Z,100.00
2022-12-01T09:43:59.166Z,100.00
2022-12-01T09:45:04.981Z,100.00
2022-12-01T09:46:13.310Z,100.00
2022-12-01T09:47:19.955Z,100.00
2022-12-01T09:48:30.545Z,100.00
2022-12-01T09:49:42.751Z,100.00
2022-12-01T09:50:45.901Z,100.00
2022-12-01T09:51:48.916Z,100.00
2022-12-01T09:52:56.918Z,100.00
2022-12-01T09:54:02.067Z,100.00
2022-12-01T09:55:12.725Z,100.00
2022-12-01T09:56:22.210Z,100.00
2022-12-01T09:57:31.886Z,100.00
2022-12-01T09:58:35.636Z,100.00
2022-12-01T09:59:43.163Z,100.00
2022-12-01T10:00:47.140Z,100.00
2022-12-01T10:01:54.690Z,100.00
2022-12-01T10:03:02.525Z,100.00
2022-12-01T10:04:13.094Z,100.00
2022-12-01T10:05:20.158Z,100.00
2022-12-01T10:06:30.141Z,100.00
2022-12-01T10:07:37.683Z,100.00
2022-12-01T10:08:45.172Z,100.00
2022-12-01T10:09:53.623Z,100.00
2022-12-01T10:11:02.767Z,100.00
2022-12-01T10:12:13.765Z,100.00
2022-12-01T10:13:20.220Z,100.00
2022-12-01T10:14:23.358Z,100.00
2022-12-01T10:15:37.275Z,100.00
2022-12-01T10:16:47.996Z,98.50
2022-12-01T10:17:56.959Z,97.35
2022-12-01T10:19:06.544Z,98.10
2022-12-01T10:20:18.740Z,98.16
2022-12-01T10:21:36.658Z,97.81
2022-12-01T10:23:05.433Z,97.23
2022-12-01T10:24:28.664Z,97.06
2022-12-01T10:25:42.837Z,96.57
2022-12-01T10:26:52.720Z,97.35
2022-12-01T10:28:08.381Z,97.29
2022-12-01T10:29:24.067Z,96.95
2022-12-01T10:30:27.712Z,97.25
2022-12-01T10:31:40.011Z,97.34
2022-12-01T10:32:52.380Z,96.51
2022-12-01T10:34:02.729Z,97.02
2022-12-01T10:35:05.168Z,96.19
2022-12-01T10:36:11.563Z,95.95
2022-12-01T10:37:19.844Z,96.67
2022-12-01T10:38:27.719Z,96.68
2022-12-01T10:39:35.552Z,96.82
2022-12-01T10:40:38.350Z,96.97
2022-12-01T10:41:42.324Z,96.88
2022-12-01T10:42:46.199Z,96.65
2022-12-01T10:43:53.326Z,96.95
2022-12-01T10:44:58.691Z,96.91
2022-12-01T10:46:06.998Z,97.44
2022-12-01T10:47:19.648Z,97.59
2022-12-01T10:48:23.059Z,96.89
2022-12-01T10:49:37.219Z,96.41
2022-12-01T10:50:41.057Z,96.49
2022-12-01T10:51:51.655Z,96.65
2022-12-01T10:52:53.809Z,96.53
2022-12-01T10:54:01.083Z,96.67
2022-12-01T10:55:24.881Z,96.71
2022-12-01T10:56:28.627Z,96.38
2022-12-01T10:57:33.124Z,96.52
2022-12-01T10:58:47.903Z,96.85
2022-12-01T10:59:53.809Z,96.97
2022-12-01T11:01:00.016Z,96.98
2022-12-01T11:02:06.451Z,97.46
2022-12-01T11:03:21.860Z,97.75
2022-12-01T11:04:45.525Z,97.30
2022-12-01T11:05:53.893Z,96.87
2022-12-01T11:06:58.842Z,97.35
2022-12-01T11:08:02.418Z,97.11
2022-12-01T11:09:06.813Z,96.26
2022-12-01T11:10:19.041Z,96.29
2022-12-01T11:11:32.097Z,96.95
2022-12-01T11:12:34.965Z,97.08
2022-12-01T11:13:38.354Z,97.42
2022-12-01T11:14:46.014Z,97.72
2022-12-01T11:15:52.610Z,97.02
2022-12-01T11:16:57.148Z,97.03
2022-12-01T11:18:02.458Z,96.95
2022-12-01T11:19:25.454Z,97.19
2022-12-01T11:20:34.105Z,96.71
2022-12-01T11:21:47.415Z,95.68
2022-12-01T11:22:52.893Z,96.28
2022-12-01T11:24:00.519Z,96.45
2022-12-01T11:25:11.752Z,95.87
2022-12-01T11:26:21.729Z,96.13
2022-12-01T11:27:29.481Z,96.36
2022-12-01T11:28:36.557Z,96.87
2022-12-01T11:29:42.130Z,96.83
2022-12-01T11:30:45.123Z,96.72
2022-12-01T11:31:53.815Z,96.51
2022-12-01T11:33:00.527Z,96.56
2022-12-01T11:34:05.794Z,96.63
2022-12-01T11:35:18.845Z,96.64
2022-12-01T11:36:32.018Z,96.89
2022-12-01T11:38:27.735Z,97.01
2022-12-01T11:39:28.062Z,97.31
2022-12-01T11:40:34.149Z,96.82
2022-12-01T11:41:40.567Z,97.16
2022-12-01T11:42:49.772Z,96.86
2022-12-01T11:44:01.143Z,96.69
2022-12-01T11:45:19.665Z,96.71
2022-12-01T11:46:31.545Z,97.00
2022-12-01T11:47:34.938Z,97.15
2022-12-01T11:48:37.096Z,97.37
2022-12-01T11:49:47.240Z,97.65
2022-12-01T11:51:06.794Z,98.08
2022-12-01T11:52:31.195Z,98.02
2022-12-01T11:53:36.359Z,97.99
2022-12-01T11:54:56.302Z,98.14
2022-12-01T11:56:16.307Z,98.27
2022-12-01T11:57:33.722Z,98.34
2022-12-01T11:58:38.157Z,98.80
2022-12-01T11:59:41.504Z,98.62
2022-12-01T12:00:51.167Z,98.56
2022-12-01T12:02:15.174Z,98.87
2022-12-01T12:03:25.944Z,99.48
2022-12-01T12:04:43.740Z,99.46
2022-12-01T12:06:39.051Z,99.15
2022-12-01T12:07:41.017Z,99.53
2022-12-01T12:09:04.364Z,99.48
2022-12-01T12:10:24.200Z,99.97
2022-12-01T12:11:37.996Z,99.62
2022-12-01T12:12:55.903Z,99.97
2022-12-01T12:14:20.924Z,99.74
2022-12-01T12:15:34.864Z,100.00
2022-12-01T12:16:52.275Z,100.00
2022-12-01T12:18:10.722Z,100.00
2022-12-01T12:19:34.288Z,100.00
2022-12-01T12:20:56.022Z,100.00
2022-12-01T12:23:59.946Z,100.00
2022-12-01T12:25:20.433Z,100.00
2022-12-01T12:26:28.705Z,100.00
2022-12-01T12:27:43.645Z,100.00
2022-12-01T12:29:17.845Z,100.00
2022-12-01T12:30:24.257Z,100.00
2022-12-01T12:31:36.265Z,100.00
2022-12-01T12:32:53.444Z,100.00
2022-12-01T12:34:14.360Z,100.00
2022-12-01T12:35:24.454Z,100.00
2022-12-01T12:36:40.995Z,100.00
2022-12-01T12:37:53.756Z,100.00
2022-12-01T12:39:10.842Z,100.00
2022-12-01T12:40:32.718Z,100.00
2022-12-01T12:41:39.824Z,100.00
2022-12-01T12:42:52.801Z,100.00
2022-12-01T12:44:05.861Z,100.00
2022-12-01T12:45:22.355Z,100.00
2022-12-01T12:46:36.950Z,100.00
2022-12-01T12:47:52.240Z,100.00
2022-12-01T12:49:19.592Z,100.00
2022-12-01T12:50:33.684Z,100.00
2022-12-01T12:51:40.825Z,100.00
2022-12-01T12:52:47.411Z,100.00
2022-12-01T12:53:54.975Z,100.00
2022-12-01T12:55:03.566Z,100.00
2022-12-01T12:56:11.214Z,100.00
2022-12-01T12:57:31.281Z,100.00
2022-12-01T12:58:40.077Z,100.00
2022-12-01T12:59:50.071Z,100.00
2022-12-01T13:00:59.267Z,100.00
2022-12-01T13:02:10.819Z,100.00
2022-12-01T13:03:20.043Z,100.00
2022-12-01T13:04:27.677Z,100.00
2022-12-01T13:05:36.831Z,100.00
2022-12-01T13:06:42.086Z,100.00
2022-12-01T13:07:51.016Z,100.00
2022-12-01T13:08:59.280Z,100.00
2022-12-01T13:10:10.395Z,100.00
2022-12-01T13:11:20.206Z,100.00
2022-12-01T13:12:29.476Z,100.00
2022-12-01T13:13:40.164Z,100.00
2022-12-01T13:14:45.008Z,100.00
2022-12-01T13:15:50.832Z,100.00
2022-12-01T13:16:59.135Z,100.00
2022-12-01T13:18:13.499Z,100.00
2022-12-01T13:19:19.535Z,100.00
2022-12-01T13:20:27.521Z,100.00
2022-12-01T13:21:35.937Z,100.00
2022-12-01T13:22:39.509Z,100.00
2022-12-01T13:23:43.980Z,100.00
2022-12-01T13:24:46.069Z,100.00
2022-12-01T13:25:53.561Z,100.00
2022-12-01T13:27:01.115Z,100.00
2022-12-01T13:28:07.962Z,100.00
2022-12-01T13:29:18.042Z,100.00
2022-12-01T13:30:23.857Z,100.00
2022-12-01T13:31:27.290Z,100.00
2022-12-01T13:32:35.647Z,100.00
2022-12-01T13:33:41.648Z,100.00
2022-12-01T13:34:48.084Z,100.00
2022-12-01T13:36:15.445Z,100.00
2022-12-01T13:37:28.010Z,100.00
2022-12-01T13:38:32.798Z,100.00
2022-12-01T13:39:38.929Z,100.00
2022-12-01T13:40:41.056Z,100.00
2022-12-01T13:41:46.713Z,100.00
2022-12-01T13:42:58.548Z,100.00
2022-12-01T13:44:08.013Z,100.00
2022-12-01T13:45:19.263Z,100.00
2022-12-01T13:46:24.055Z,100.00
2022-12-01T13:47:49.062Z,100.00
2022-12-01T13:48:55.100Z,100.00
2022-12-01T13:49:58.408Z,100.00
2022-12-01T13:51:03.135Z,100.00
2022-12-01T13:52:33.714Z,100.00
2022-12-01T13:53:38.024Z,100.00
2022-12-01T13:55:00.040Z,100.00
2022-12-01T13:56:53.420Z,100.00
2022-12-01T13:58:39.316Z,100.00